Argentina

Zurück zu Lateinamerika Lokale Informationen verfügbar

Büros

Escalas

Estimado cliente,

La información que se detalla a continuación relativa a fechas, horarios y otros son estimados y sujetos a cambios en cualquier momento sin previo aviso.

 

SEC (South America East Service) -Costa Este de Estados Unidos

Buque Viaje Sericio ETA ETD Cut Off Fisico Cut Off Doc VGM Terminal
NORTHERN MAGNITUDE 121N SEC 31/05 02/06 28/05 12:00 27/05 14:00 28/05 12:00 TERMINAL 4 S.A.
MEHUIN 122N SEC 06/06 07/06 02/06 12:00 03/06 14:00 02/06 12:00 TERMINAL 4 S.A.
NORTHERN MAJESTIC 123N SEC 12/06 13/06 09/06 12:00 10/06 14:00 09/06 12:00 TRP S.A.
NORTHERN MAGNUM 124N SEC 19/06 20/06 16/06 12:00 17/06 14:00 16/06 12:00 TERMINAL 4 S.A.
MAERSK KARACHI 125N SEC 26/06 27/06 23/06 12:00 24/06 14:00 23/06 12:00 TERMINAL 4 S.A.
MAIPO 126N SEC 03/07 04/07 30/06 12:00 01/07 14:00 30/06 12:00 TERMINAL 4 S.A.
MAERSK MEMPHIS 127N SEC 10/07 11/07 07/07 12:00 08/07 14:00 07/07 12:00 TERMINAL 4 S.A.
NORTHERN MAGNITUDE 128N SEC 17/07 18/07 16/07 12:00 15/07 14:00 16/07 12:00 TERMINAL 4 S.A.
NO SAIL WEEK 129N SEC NO SAIL WEEK NO SAIL WEEK NO SAIL WEEK NO SAIL WEEK NO SAIL WEEK TERMINAL 4 S.A.

ECX ( Europe East Coast Express Service ) - Norte de Europa y Conexiones

Buque Viaje Sericio ETA ETD Cut Off Fisico Cut Off Doc VGM Terminal
UASC AL KHOR NA122R ECX 02/06 05/06 29/05 12:00 28/05 12:00 29/05 12:00 EXOLGAN S.A.
MSC CATERINA NA123R ECX 10/06 11/06 05/06 12:00 04/06 12:00 05/06 12:00 EXOLGAN S.A.
MSC ARICA NA124R ECX 14/06 15/06 12/06 12:00 11/06 12:00 12/06 12:00 EXOLGAN S.A.
UASC ZAMZAM NA125R ECX 23/06 24/06 19/06 12:00 18/06 12:00 19/06 12:00 EXOLGAN S.A.
MSC MICHELA NA126R ECX 28/06 29/06 26/06 12:00 25/06 12:00 26/06 12:00 EXOLGAN S.A.
CSAV TRANCURA NA127R ECX 06/07 07/07 03/07 12:00 02/07 12:00 03/07 12:00 EXOLGAN S.A.
MSC SOFIA CELESTE NA128R ECX 11/07 12/07 10/07 12:00 08/07 14:00 10/07 12:00 EXOLGAN S.A.
HUNGARY NA129R ECX 20/07 21/07 17/07 12:00 16/07 12:00 17/07 12:00 EXOLGAN S.A.
MSC PALAK NA130R ECX 27/07 28/07 24/07 12:00 23/07 12:00 24/07 12:00 EXOLGAN S.A.

BPX (Brazil-River Plate Express Service) - Norte de Europa y Conexiones

Buque Viaje Sericio ETA ETD Cut Off Fisico Cut Off Doc VGM Terminal
CAP SAN AUGUSTIN 122N BPX OMIT ARBUE OMIT ARBUE OMIT ARBUE OMIT ARBUE OMIT ARBUE TERMINAL 4 S.A.
CAP SAN LORENZO 123N BPX 10/06 13/06 09/06 18:00 09/06 14:00 09/06 16:00 TERMINAL 4 S.A.
CAP SAN ANTONIO 124N BPX OMIT ARBUE OMIT ARBUE OMIT ARBUE OMIT ARBUE OMIT ARBUE TERMINAL 4 S.A.
CAP SAN ARTEMISSIO 125N BPX 26/06 29/06 24/06 18:00 23/06 14:00 24/06 16:00 TERMINAL 4 S.A.
CAP SAN MARCO 126N BPX 02/07 04/07 30/06 18:00 29/06 14:00 30/06 16:00 TERMINAL 4 S.A.
CAP SAN NICOLAS 127N BPX 09/07 11/07 07/07 18:00 06/07 14:00 07/07 16:00 TERMINAL 4 S.A.
CAP SAN MALEAS 128N BPX 16/07 18/07 14/07 18:00 13/07 14:00 14/07 16:00 TERMINAL 4 S.A.

AS2 (Asia SAEC Service) - Oriente y Conexiones

Buque Viaje Sericio ETA ETD Cut Off Fisico Cut Off Doc VGM Terminal
BUENOS AIRES EXPRESS 2115E AS2 07/06 09/06 28/05 18:00 28/05 14:00 31/05 20:00 EXOLGAN S.A.
SEASPAN RAPTOR 2116E AS2 12/06 13/06 06/07 18:00 07/06 14:00 07/06 19:00 EXOLGAN S.A.
MONTEVIDEO EXPRESS 2118E AS2 24/06 25/06 19/06 18:00 18/06 14:00 19/06 18:00 EXOLGAN S.A.
SEASPAN OSPREY 2120E AS2 09/07 12/07 05/07 18:00 02/07 14:00 05/07 18:00 EXOLGAN S.A.
PARANAGUA EXPRESS 2121E AS2 13/07 15/07 10/07 13:00 08/07 14:00 10/07 13:00 EXOLGAN S.A.
SEASPAN HARRIER 2122E AS2 20/07 22/07 17/07 13:00 16/07 14:00 17/07 13:00 EXOLGAN S.A.

CON (Conosur Service) – Bahia Blanca – Brasil y conexiones – Costa Oeste de Sud America

Buque Viaje Sericio ETA ETD Cut Off Fisico Cut Off Doc VGM Terminal
SAN ANTONIO EXPRESS 122W CON OMIT ARBHI OMIT ARBHI OMIT ARBHI OMIT ARBHI OMIT ARBHI TERMINAL DE SERVICIOS PORTUARIOS
CARLOTTA STAR 124W CON 09/06 11/06 09/06 12:00 08/06 14:00 09/06 12:00 TERMINAL DE SERVICIOS PORTUARIOS
UTE 125W CON OMIT ARBHI OMIT ARBHI OMIT ARBHI OMIT ARBHI OMIT ARBHI TERMINAL DE SERVICIOS PORTUARIOS
BOMAR BEIJING 126W CON 24/06 26/06 23/06 12:00 22/06 14:00 23/06 12:00 TERMINAL DE SERVICIOS PORTUARIOS
ANTOFAGASTA EXPRESS 127W CON 01/07 03/07 24/06 12:00 23/06 14:00 24/06 15:00 TERMINAL DE SERVICIOS PORTUARIOS
CITY OF ALEXANDRIA 128W CON OMIT ARBHI OMIT ARBHI OMIT ARBHI OMIT ARBHI OMIT ARBHI TERMINAL DE SERVICIOS PORTUARIOS
JOGELA 129W CON OMIT ARBHI OMIT ARBHI OMIT ARBHI OMIT ARBHI OMIT ARBHI TERMINAL DE SERVICIOS PORTUARIOS
SAN ANTONIO EXPRESS 130W CON 22/07 24/07 15/07 12:00 14/07 14:00 15/07 12:00 TERMINAL DE SERVICIOS PORTUARIOS
MARIANETTA 131W CON OMIT ARBHI OMIT ARBHI OMIT ARBHI OMIT ARBHI OMIT ARBHI TERMINAL DE SERVICIOS PORTUARIOS

CON (Conosur Service) – Puerto Madryn – Brasil y conexiones – Costa Oeste de Sud America

Buque Viaje Sericio ETA ETD Cut Off Fisico Cut Off Doc VGM Terminal
SAN ANTONIO EXPRESS 122W CON OMIT ARPMY OMIT ARPMY OMIT ARPMY OMIT ARPMY OMIT ARPMY LOGINTER S.A
CARLOTTA STAR 124W CON OMIT ARPMY OMIT ARPMY OMIT ARPMY OMIT ARPMY OMIT ARPMY LOGINTER S.A
UTE 125W CON OMIT ARPMY OMIT ARPMY OMIT ARPMY OMIT ARPMY OMIT ARPMY LOGINTER S.A
BOMAR BEIJING 126W CON 19/06 23/06 17/06 12:00 16/06 14:00 17/06 12:00 LOGINTER S.A
ANTOFAGASTA EXPRESS 127W CON 25/06 29/06 28/06 12:00 25/06 14:00 28/06 12:00 LOGINTER S.A
CITY OF ALEXANDRIA 128W CON OMIT ARPMY OMIT ARPMY OMIT ARPMY OMIT ARPMY OMIT ARPMY LOGINTER S.A
JOGELA 129W CON OMIT ARPMY OMIT ARPMY OMIT ARPMY OMIT ARPMY OMIT ARPMY LOGINTER S.A
SAN ANTONIO EXPRESS 130W CON 16/07 20/07 12/07 12:00 08/07 14:00 12/07 12:00 LOGINTER S.A
MARIANETTA 131W CON OMIT ARPMY OMIT ARPMY OMIT ARPMY OMIT ARPMY OMIT ARPMY LOGINTER S.A

ASE (Asia SAEC Service) - Oriente y Conexiones

Buque Viaje Sericio ETA ETD Cut Off Fisico Cut Off Doc VGM Terminal
MAERSK LIMA 122E ASE 02/06 04/06 26/05 12:00 28/05 14:00 29/05 12:00 TERMINAL 4 S.A.
MAERSK LANCO 123E ASE 07/06 09/06 02/06 12:00 04/06 14:00 05/06 12:00 TERMINAL 4 S.A.
MAERSK LAGUNA 124E ASE 13/06 15/06 12/06 12:00 09/06 14:00 12/06 12:00 TERMINAL 4 S.A.
MAERSK LIRQUEN 125E ASE 20/06 22/06 19/06 12:00 18/06 14:00 19/06 12:00 TERMINAL 4 S.A.
MAERSK LABREA 126E ASE 28/06 29/06 26/06 12:00 25/06 14:00 26/06 12:00 TERMINAL 4 S.A.
ATACAMA 127E ASE 07/07 09/07 03/07 12:00 02/07 14:00 03/07 12:00 TERMINAL 4 S.A.
MAERSK LEON 128E ASE 13/07 15/07 08/07 23:59 07/07 14:00 08/07 23:59 TERMINAL 4 S.A.
MAERSK LAVRAS 129E ASE 18/07 20/07 17/07 12:00 16/07 14:00 17/07 12:00 TERMINAL 4 S.A.
MAERSK LETICIA 130E ASE 25/07 27/07 23/07 12:00 22/07 14:00 23/07 12:00 TERMINAL 4 S.A.

GS1 (US Gulf - South America Eastcoast Loop 1) - Golfo de México y Estados Unidos - Conexiones a Caribe, Mediterraneo, Servicio Mercosur

Buque Viaje Sericio ETA ETD Cut Off Fisico Cut Off Doc VGM Terminal
TUBUL 2118N GS1 06/06 07/06 02/06 18:00 01/06 14:00 02/06 18:00 EXOLGAN S.A.
E.R. CANADA 2119N GS1 11/06 12/06 09/06 18:00 08/06 14:00 09/06 18:00 EXOLGAN S.A.
TIRUA 2120N GS1 18/06 19/06 16/06 18:00 15/06 14:00 16/06 18:00 EXOLGAN S.A.
NO SAIL WEEK 2121N GS1 NO SAIL WEEK NO SAIL WEEK NO SAIL WEEK NO SAIL WEEK NO SAIL WEEK EXOLGAN S.A.
TUCAPEL 2122N GS1 02/07 03/07 30/06 18:00 29/06 14:00 30/06 18:00 EXOLGAN S.A.
TEMPANOS 2123N GS1 09/07 10/07 07/07 18:00 06/07 14:00 07/07 18:00 EXOLGAN S.A.
TOLTEN 2124N GS1 16/07 17/07 10/07 13:00 08/07 14:00 10/07 13:00 EXOLGAN S.A.
MSC BARCELONA 2125N GS1 23/07 24/07 17/07 13:00 16/07 14:00 17/07 13:00 EXOLGAN S.A.
TUBUL 2126N GS1 30/07 31/07 24/07 13:00 23/07 14:00 24/07 13:00 EXOLGAN S.A.

IRL Feeder Service ARROS

Buque Viaje Sericio ETA ETD Cut Off Fisico Cut Off Doc VGM Terminal
ARGENTINA C 87 IRL 06/06 07/06 03/06 18:00 25/05 12:00 03/06 18:00 TERMINAL PUERTO ROSARIO
ARGENTINA C 88 IRL 16/06 16/06 10/06 18:00 10/06 14:00 10/06 18:00 TERMINAL PUERTO ROSARIO
ARGENTINA C 89 IRL 23/06 23/06 18/06 14:00 18/06 14:00 18/06 14:00 TERMINAL PUERTO ROSARIO
ARGENTINA C 90 IRL 30/06 30/06 25/06 14:00 25/06 14:00 25/06 14:00 TERMINAL PUERTO ROSARIO
ARGENTINA C 91 IRL 07/07 07/07 02/07 14:00 02/07 14:00 02/07 14:00 TERMINAL PUERTO ROSARIO

IRL Feeder Service ARZAE

Buque Viaje Sericio ETA ETD Cut Off Fisico Cut Off Doc VGM Terminal
ARGENTINA C 87 IRL 05/06 05/06 21/05 12:00 21/05 14:00 22/05 12:00 TERMINAL ZARATE
VIRGINIA 258 IRL 05/06 05/06 31/05 06:00 31/05 12:00 31/05 10:00 TERMINAL ZARATE
ARGENTINA C 88 IRL 14/06 14/06 01/06 17:00 01/06 14:00 01/06 17:00 TERMINAL ZARATE
VIRGINIA 259 IRL 15/06 15/06 14/06 12:00 11/06 14:00 14/06 12:00 TERMINAL ZARATE
ARGENTINA C 89 IRL 21/06 21/06 17/06 12:00 16/06 14:00 17/06 12:00 TERMINAL ZARATE
VIRGINIA 260 IRL 22/06 22/06 14/06 10:00 11/06 14:00 14/06 10:00 TERMINAL ZARATE
ARGENTINA C 90 IRL 28/06 28/06 24/06 12:00 23/06 14:00 24/06 12:00 TERMINAL ZARATE
VIRGINIA 261 IRL 29/06 29/06 21/06 12:00 18/06 14:00 21/06 12:00 TERMINAL ZARATE
ARGENTINA C 91 IRL 05/07 05/07 01/07 12:00 30/06 14:00 01/07 12:00 TERMINAL ZARATE
VIRGINIA 262 IRL 06/07 06/07 28/06 12:00 25/06 14:00 28/06 12:00 TERMINAL ZARATE
Back to Top